AMS weather

Amsterdam Airport Schiphol
Amsterdam, Noord-Holland, Netherlands

Public forecast

Using degrees Celsius for public forecast. Weather courtesy of forecast.io.

METAR (pilot weather report)

Retrieved 2019/02/18 17:55 UTC (9 minutes ago):

EHAM 181755Z 27009KT 230V290 9999 OVC025 10/08 Q1014 NOSIG

TAF (pilot weather forecast)

Retrieved 2019/02/18 18:28 UTC (0 seconds ago):

TAF EHAM 181704Z 1818/1924 23007KT 9999 SCT018 BKN025 BECMG 1820/1822 7000 -RA PROB40 TEMPO 1822/1901 4000 -RADZ BKN008 BECMG 1900/1903 24012KT 9999 NSW FEW025 PROB40 1907/1911 BKN013